createdAt,value
2019-05-06T00:02:04.593Z,76.13
2019-05-06T00:04:36.114Z,76.40
2019-05-06T00:07:08.007Z,75.87
2019-05-06T00:09:39.676Z,75.60
2019-05-06T00:12:11.725Z,75.66
2019-05-06T00:14:43.775Z,75.21
2019-05-06T00:17:15.940Z,75.65
2019-05-06T00:19:47.642Z,75.62
2019-05-06T00:22:19.691Z,75.38
2019-05-06T00:24:58.295Z,75.54
2019-05-06T00:27:55.277Z,75.50
2019-05-06T00:30:27.231Z,75.89
2019-05-06T00:32:59.064Z,75.42
2019-05-06T00:35:30.766Z,75.56
2019-05-06T00:38:04.376Z,75.37
2019-05-06T00:40:37.909Z,75.80
2019-05-06T00:43:10.583Z,75.63
2019-05-06T00:45:44.315Z,75.56
2019-05-06T00:48:16.225Z,75.40
2019-05-06T00:50:47.790Z,75.17
2019-05-06T00:53:23.830Z,75.29
2019-05-06T00:55:56.057Z,75.76
2019-05-06T00:58:27.906Z,75.94
2019-05-06T01:00:59.672Z,76.19
2019-05-06T01:03:31.461Z,76.34
2019-05-06T01:06:04.029Z,76.45
2019-05-06T01:08:36.028Z,76.51
2019-05-06T01:11:08.220Z,76.40
2019-05-06T01:13:49.508Z,75.86
2019-05-06T01:16:21.961Z,75.63
2019-05-06T01:18:54.209Z,76.01
2019-05-06T01:21:25.961Z,76.46
2019-05-06T01:23:57.724Z,76.81
2019-05-06T01:26:29.512Z,77.80
2019-05-06T01:29:03.737Z,77.51
2019-05-06T01:31:42.703Z,77.42
2019-05-06T01:34:09.099Z,77.78
2019-05-06T01:36:40.917Z,78.02
2019-05-06T01:39:34.381Z,78.17
2019-05-06T01:42:24.611Z,78.21
2019-05-06T01:44:56.628Z,78.35
2019-05-06T01:47:28.516Z,77.81
2019-05-06T01:50:00.337Z,77.55
2019-05-06T01:52:34.362Z,78.09
2019-05-06T01:55:05.639Z,78.15
2019-05-06T01:57:37.436Z,78.01
2019-05-06T02:00:14.130Z,77.84
2019-05-06T02:02:45.701Z,77.69
2019-05-06T02:05:17.480Z,77.59
2019-05-06T02:07:49.307Z,77.98
2019-05-06T02:10:23.711Z,77.94
2019-05-06T02:12:56.254Z,77.76
2019-05-06T02:15:27.866Z,77.82
2019-05-06T02:17:59.397Z,77.73
2019-05-06T02:20:31.328Z,77.60
2019-05-06T02:23:10.739Z,77.97
2019-05-06T02:25:46.354Z,78.12
2019-05-06T02:28:17.808Z,78.15
2019-05-06T02:31:08.621Z,78.35
2019-05-06T02:34:05.327Z,78.71
2019-05-06T02:36:45.533Z,78.34
2019-05-06T02:39:17.281Z,78.70
2019-05-06T02:41:49.156Z,78.72
2019-05-06T02:44:23.729Z,78.47
2019-05-06T02:47:03.328Z,78.08
2019-05-06T02:50:00.053Z,78.38
2019-05-06T02:52:32.928Z,77.91
2019-05-06T02:55:06.507Z,77.69
2019-05-06T02:57:39.609Z,78.33
2019-05-06T03:00:15.352Z,77.93
2019-05-06T03:02:48.198Z,78.74
2019-05-06T03:05:23.714Z,78.33
2019-05-06T03:07:57.618Z,77.86
2019-05-06T03:10:29.122Z,77.96
2019-05-06T03:13:03.032Z,78.23
2019-05-06T03:15:34.663Z,78.30
2019-05-06T03:18:06.269Z,78.33
2019-05-06T03:20:56.014Z,78.17
2019-05-06T03:23:30.491Z,77.65
2019-05-06T03:26:03.754Z,77.73
2019-05-06T03:28:36.110Z,77.64
2019-05-06T03:31:08.384Z,77.48
2019-05-06T03:34:03.385Z,77.54
2019-05-06T03:36:24.432Z,77.79
2019-05-06T03:38:48.532Z,77.49
2019-05-06T03:41:26.075Z,77.64
2019-05-06T03:43:54.550Z,78.06
2019-05-06T03:46:48.352Z,77.52
2019-05-06T03:49:18.609Z,77.78
2019-05-06T03:51:56.037Z,78.07
2019-05-06T03:54:24.588Z,78.06
2019-05-06T03:56:57.168Z,77.59
2019-05-06T03:59:33.481Z,77.63
2019-05-06T04:02:05.420Z,77.69
2019-05-06T04:04:37.410Z,77.98
2019-05-06T04:07:09.191Z,77.16
2019-05-06T04:09:43.969Z,76.93
2019-05-06T04:12:15.700Z,77.39
2019-05-06T04:14:47.436Z,76.73
2019-05-06T04:17:37.033Z,77.25
2019-05-06T04:20:18.422Z,77.32
2019-05-06T04:23:08.665Z,76.71
2019-05-06T04:25:58.459Z,76.58
2019-05-06T04:28:34.185Z,76.59
2019-05-06T04:31:07.249Z,76.40
2019-05-06T04:33:38.929Z,76.19
2019-05-06T04:36:13.140Z,76.80
2019-05-06T04:38:44.183Z,75.60
2019-05-06T04:41:16.193Z,73.72
2019-05-06T04:43:48.341Z,74.23
2019-05-06T04:46:23.363Z,74.30
2019-05-06T04:48:54.174Z,73.73
2019-05-06T04:51:27.105Z,74.41
2019-05-06T04:53:58.946Z,74.15
2019-05-06T04:56:33.218Z,72.88
2019-05-06T04:59:06.383Z,73.14
2019-05-06T05:01:38.005Z,73.64
2019-05-06T05:04:26.925Z,73.47
2019-05-06T05:06:43.445Z,73.33
2019-05-06T05:09:17.427Z,73.32
2019-05-06T05:11:53.744Z,73.30
2019-05-06T05:14:53.690Z,73.79
2019-05-06T05:17:47.062Z,74.57
2019-05-06T05:20:19.071Z,73.87
2019-05-06T05:22:52.741Z,73.58
2019-05-06T05:25:22.695Z,73.58
2019-05-06T05:27:54.433Z,73.03
2019-05-06T05:30:26.225Z,73.44
2019-05-06T05:32:58.019Z,73.50
2019-05-06T05:35:31.992Z,73.51
2019-05-06T05:38:03.641Z,73.30
2019-05-06T05:40:35.860Z,73.16
2019-05-06T05:43:29.611Z,73.06
2019-05-06T05:46:02.885Z,72.73
2019-05-06T05:48:52.475Z,72.61
2019-05-06T05:51:24.965Z,72.33
2019-05-06T05:53:56.803Z,72.18
2019-05-06T05:56:29.010Z,72.12
2019-05-06T05:59:03.032Z,71.76
2019-05-06T06:01:34.340Z,72.64
2019-05-06T06:04:06.280Z,73.08
2019-05-06T06:06:38.155Z,73.21
2019-05-06T06:09:10.017Z,72.27
2019-05-06T06:12:02.829Z,70.71
2019-05-06T06:14:55.937Z,70.62
2019-05-06T06:17:45.271Z,71.40
2019-05-06T06:20:35.084Z,71.10
2019-05-06T06:23:13.559Z,70.01
2019-05-06T06:25:45.195Z,69.65
2019-05-06T06:28:16.913Z,69.93
2019-05-06T06:31:12.071Z,69.22
2019-05-06T06:33:44.001Z,69.32
2019-05-06T06:36:46.470Z,68.62
2019-05-06T06:39:32.718Z,68.32
2019-05-06T06:42:04.403Z,67.56
2019-05-06T06:44:36.598Z,67.50
2019-05-06T06:47:08.334Z,65.81
2019-05-06T06:49:42.444Z,65.51
2019-05-06T06:52:14.874Z,63.93
2019-05-06T06:54:46.676Z,63.32
2019-05-06T06:57:37.383Z,62.39
2019-05-06T07:00:33.574Z,58.17
2019-05-06T07:03:14.995Z,57.97
2019-05-06T07:06:02.337Z,59.02
2019-05-06T07:08:37.602Z,60.41
2019-05-06T07:11:07.923Z,62.41
2019-05-06T07:13:43.456Z,61.93
2019-05-06T07:16:15.465Z,60.98
2019-05-06T07:18:46.898Z,61.71
2019-05-06T07:21:24.416Z,60.89
2019-05-06T07:23:56.127Z,62.03
2019-05-06T07:26:31.863Z,61.40
2019-05-06T07:29:13.640Z,61.42
2019-05-06T07:31:37.145Z,62.93
2019-05-06T07:34:08.887Z,62.55
2019-05-06T07:36:42.958Z,62.37
2019-05-06T07:39:15.573Z,61.83
2019-05-06T07:41:53.473Z,62.27
2019-05-06T07:44:52.910Z,61.67
2019-05-06T07:47:33.118Z,62.19
2019-05-06T07:50:05.703Z,62.06
2019-05-06T07:52:37.677Z,62.07
2019-05-06T07:55:11.898Z,61.08
2019-05-06T07:57:43.499Z,61.97
2019-05-06T08:00:16.243Z,62.62
2019-05-06T08:02:47.935Z,62.42
2019-05-06T08:05:19.676Z,62.11
2019-05-06T08:07:55.068Z,60.12
2019-05-06T08:10:24.580Z,60.86
2019-05-06T08:12:56.230Z,62.02
2019-05-06T08:15:28.127Z,59.38
2019-05-06T08:17:59.911Z,58.17
2019-05-06T08:20:37.506Z,58.55
2019-05-06T08:23:19.022Z,55.97
2019-05-06T08:25:54.361Z,55.79
2019-05-06T08:28:36.843Z,56.37
2019-05-06T08:30:58.823Z,56.51
2019-05-06T08:33:32.761Z,56.63
2019-05-06T08:36:11.573Z,56.47
2019-05-06T08:38:59.475Z,57.33
2019-05-06T08:41:33.198Z,57.00
2019-05-06T08:44:04.684Z,57.77
2019-05-06T08:46:36.613Z,54.92
2019-05-06T08:49:08.339Z,55.82
2019-05-06T08:51:48.310Z,55.51
2019-05-06T08:54:43.358Z,56.65
2019-05-06T08:57:15.253Z,57.87
2019-05-06T08:59:46.834Z,56.51
2019-05-06T09:02:19.407Z,57.42
2019-05-06T09:04:51.830Z,56.73
2019-05-06T09:07:23.973Z,58.46
2019-05-06T09:09:55.726Z,58.42
2019-05-06T09:12:27.452Z,59.83
2019-05-06T09:14:59.106Z,59.13
2019-05-06T09:17:32.899Z,61.23
2019-05-06T09:20:04.801Z,61.41
2019-05-06T09:22:36.716Z,61.53
2019-05-06T09:25:08.748Z,61.85
2019-05-06T09:27:53.788Z,62.71
2019-05-06T09:30:53.387Z,64.93
2019-05-06T09:33:33.024Z,64.48
2019-05-06T09:36:04.280Z,65.89
2019-05-06T09:38:35.835Z,64.85
2019-05-06T09:41:07.432Z,63.90
2019-05-06T09:43:38.910Z,63.51
2019-05-06T09:46:12.753Z,63.45
2019-05-06T09:49:03.311Z,63.42
2019-05-06T09:51:35.025Z,64.32
2019-05-06T09:54:23.540Z,63.51
2019-05-06T09:57:02.505Z,64.81
2019-05-06T09:59:34.976Z,63.20
2019-05-06T10:02:06.663Z,64.23
2019-05-06T10:04:38.616Z,66.37
2019-05-06T10:07:11.883Z,68.52
2019-05-06T10:09:44.023Z,68.62
2019-05-06T10:12:15.461Z,69.75
2019-05-06T10:14:47.365Z,69.74
2019-05-06T10:17:19.178Z,70.83
2019-05-06T10:19:51.131Z,69.96
2019-05-06T10:22:23.365Z,70.23
2019-05-06T10:24:55.240Z,70.88
2019-05-06T10:27:28.296Z,70.17
2019-05-06T10:30:03.490Z,69.70
2019-05-06T10:32:49.443Z,68.38
2019-05-06T10:35:22.501Z,70.37
2019-05-06T10:38:44.745Z,69.59
2019-05-06T10:41:22.363Z,68.88
2019-05-06T10:44:46.631Z,70.19
2019-05-06T10:47:18.797Z,70.84
2019-05-06T10:49:52.810Z,72.79
2019-05-06T10:52:26.739Z,73.19
2019-05-06T10:54:58.438Z,71.68
2019-05-06T10:57:40.559Z,71.21
2019-05-06T11:00:13.256Z,71.66
2019-05-06T11:02:54.370Z,71.73
2019-05-06T11:05:25.916Z,72.05
2019-05-06T11:07:57.475Z,72.60
2019-05-06T11:10:38.040Z,72.19
2019-05-06T11:13:03.471Z,70.26
2019-05-06T11:15:35.330Z,71.00
2019-05-06T11:18:07.033Z,71.05
2019-05-06T11:20:38.671Z,71.30
2019-05-06T11:23:10.299Z,71.24
2019-05-06T11:25:43.153Z,72.43
2019-05-06T11:28:36.730Z,74.00
2019-05-06T11:31:37.261Z,73.52
2019-05-06T11:34:26.812Z,71.12
2019-05-06T11:37:16.511Z,70.92
2019-05-06T11:39:48.809Z,72.24
2019-05-06T11:42:31.002Z,70.31
2019-05-06T11:44:54.545Z,69.94
2019-05-06T11:47:26.460Z,69.01
2019-05-06T11:49:58.883Z,65.04
2019-05-06T11:52:30.934Z,67.50
2019-05-06T11:55:02.772Z,66.45
2019-05-06T11:57:35.906Z,63.63
2019-05-06T12:00:06.832Z,63.31
2019-05-06T12:02:41.397Z,61.72
2019-05-06T12:05:12.450Z,60.64
2019-05-06T12:08:00.384Z,61.35
2019-05-06T12:10:17.633Z,59.96
2019-05-06T12:12:49.572Z,60.85
2019-05-06T12:15:23.018Z,60.10
2019-05-06T12:17:55.968Z,61.41
2019-05-06T12:20:27.647Z,59.68
2019-05-06T12:22:59.219Z,62.54
2019-05-06T12:25:30.857Z,61.64
2019-05-06T12:28:03.151Z,62.82
2019-05-06T12:30:34.932Z,63.77
2019-05-06T12:33:38.080Z,62.86
2019-05-06T12:36:22.292Z,63.03
2019-05-06T12:39:16.014Z,63.85
2019-05-06T12:42:05.712Z,62.08
2019-05-06T12:44:38.942Z,63.72
2019-05-06T12:47:34.808Z,64.41
2019-05-06T12:50:08.237Z,64.14
2019-05-06T12:52:39.873Z,64.00
2019-05-06T12:55:20.709Z,62.81
2019-05-06T12:57:45.458Z,62.05
2019-05-06T13:00:17.453Z,64.08
2019-05-06T13:02:49.590Z,64.47
2019-05-06T13:05:21.457Z,62.40
2019-05-06T13:07:52.956Z,61.27
2019-05-06T13:10:24.788Z,57.77
2019-05-06T13:13:01.871Z,61.83
2019-05-06T13:15:33.944Z,56.23
2019-05-06T13:18:07.004Z,56.55
2019-05-06T13:20:39.783Z,53.85
2019-05-06T13:23:39.880Z,53.37
2019-05-06T13:26:12.907Z,50.38
2019-05-06T13:28:49.540Z,48.95
2019-05-06T13:31:24.999Z,50.11
2019-05-06T13:34:14.319Z,48.52
2019-05-06T13:36:46.256Z,45.61
2019-05-06T13:39:18.374Z,44.11
2019-05-06T13:41:50.070Z,42.42
2019-05-06T13:44:22.770Z,43.82
2019-05-06T13:46:55.693Z,43.14
2019-05-06T13:49:44.854Z,43.98
2019-05-06T13:52:22.806Z,42.38
2019-05-06T13:54:54.052Z,41.33
2019-05-06T13:57:28.829Z,39.87
2019-05-06T13:59:59.053Z,40.45
2019-05-06T14:02:43.446Z,39.78
2019-05-06T14:05:14.468Z,41.71
2019-05-06T14:07:46.513Z,41.91
2019-05-06T14:10:18.400Z,40.97
2019-05-06T14:12:50.197Z,41.69
2019-05-06T14:15:23.268Z,43.92
2019-05-06T14:17:55.488Z,45.35
2019-05-06T14:20:27.205Z,46.74
2019-05-06T14:22:59.150Z,46.57
2019-05-06T14:25:49.406Z,47.78
2019-05-06T14:28:43.177Z,48.62
2019-05-06T14:31:32.871Z,50.73
2019-05-06T14:34:03.731Z,52.08
2019-05-06T14:36:34.173Z,54.41
2019-05-06T14:39:06.850Z,53.09
2019-05-06T14:41:39.558Z,53.73
2019-05-06T14:44:12.225Z,55.16
2019-05-06T14:47:00.944Z,56.30
2019-05-06T14:49:32.541Z,58.06
2019-05-06T14:52:03.181Z,60.50
2019-05-06T14:54:35.289Z,61.23
2019-05-06T14:57:12.798Z,61.91
2019-05-06T14:59:43.204Z,62.31
2019-05-06T15:02:13.912Z,62.62
2019-05-06T15:04:44.555Z,61.96
2019-05-06T15:07:15.229Z,62.29
2019-05-06T15:09:58.516Z,62.15
2019-05-06T15:12:17.752Z,63.34
2019-05-06T15:14:48.222Z,62.12
2019-05-06T15:17:18.523Z,62.69
2019-05-06T15:19:49.089Z,63.17
2019-05-06T15:22:19.876Z,62.51
2019-05-06T15:24:53.260Z,62.07
2019-05-06T15:27:22.883Z,63.19
2019-05-06T15:29:57.169Z,62.97
2019-05-06T15:32:33.876Z,62.01
2019-05-06T15:35:22.322Z,62.55
2019-05-06T15:37:59.310Z,63.00
2019-05-06T15:40:33.893Z,66.80
2019-05-06T15:43:02.794Z,67.84
2019-05-06T15:45:33.518Z,68.68
2019-05-06T15:48:04.146Z,68.36
2019-05-06T15:50:34.581Z,69.91
2019-05-06T15:53:05.183Z,70.68
2019-05-06T15:55:35.651Z,70.64
2019-05-06T15:58:05.886Z,72.54
2019-05-06T16:00:36.450Z,73.05
2019-05-06T16:03:06.997Z,74.16
2019-05-06T16:05:37.688Z,73.31
2019-05-06T16:08:08.305Z,73.59
2019-05-06T16:10:51.940Z,72.20
2019-05-06T16:13:12.921Z,73.55
2019-05-06T16:15:43.993Z,74.18
2019-05-06T16:18:14.357Z,74.04
2019-05-06T16:20:44.902Z,73.83
2019-05-06T16:23:27.180Z,73.68
2019-05-06T16:25:57.962Z,74.52
2019-05-06T16:28:28.552Z,75.25
2019-05-06T16:30:59.044Z,74.91
2019-05-06T16:33:29.887Z,75.08
2019-05-06T16:36:00.279Z,72.99
2019-05-06T16:38:32.300Z,74.64
2019-05-06T16:41:12.355Z,73.84
2019-05-06T16:43:35.363Z,74.53
2019-05-06T16:46:05.855Z,73.99
2019-05-06T16:48:36.509Z,74.92
2019-05-06T16:51:06.948Z,76.00
2019-05-06T16:53:37.485Z,76.44
2019-05-06T16:56:17.200Z,75.70
2019-05-06T16:58:52.561Z,74.28
2019-05-06T17:01:23.275Z,74.32
2019-05-06T17:04:14.511Z,74.19
2019-05-06T17:06:45.050Z,75.29
2019-05-06T17:09:20.910Z,76.60
2019-05-06T17:11:47.509Z,77.12
2019-05-06T17:14:18.151Z,77.10
2019-05-06T17:16:48.666Z,76.45
2019-05-06T17:19:19.180Z,76.70
2019-05-06T17:21:49.714Z,75.89
2019-05-06T17:24:22.035Z,76.98
2019-05-06T17:26:56.119Z,77.39
2019-05-06T17:30:02.280Z,77.29
2019-05-06T17:32:54.398Z,77.28
2019-05-06T17:35:24.985Z,75.99
2019-05-06T17:38:08.114Z,76.73
2019-05-06T17:40:38.704Z,77.10
2019-05-06T17:43:09.013Z,77.13
2019-05-06T17:46:03.132Z,77.50
2019-05-06T17:49:02.797Z,77.65
2019-05-06T17:51:42.542Z,78.00
2019-05-06T17:54:13.483Z,77.83
2019-05-06T17:56:43.996Z,78.49
2019-05-06T17:59:14.652Z,77.99
2019-05-06T18:01:48.484Z,77.00
2019-05-06T18:04:18.974Z,77.18
2019-05-06T18:06:49.455Z,78.00
2019-05-06T18:09:22.196Z,77.76
2019-05-06T18:11:59.082Z,79.05
2019-05-06T18:14:24.345Z,78.57
2019-05-06T18:16:54.916Z,77.27
2019-05-06T18:19:25.503Z,77.20
2019-05-06T18:21:55.749Z,77.60
2019-05-06T18:24:26.495Z,77.04
2019-05-06T18:26:57.072Z,77.39
2019-05-06T18:29:27.519Z,77.60
2019-05-06T18:31:58.213Z,77.02
2019-05-06T18:34:29.981Z,77.13
2019-05-06T18:37:02.951Z,77.65
2019-05-06T18:39:33.925Z,78.52
2019-05-06T18:42:16.029Z,78.46
2019-05-06T18:44:37.121Z,78.19
2019-05-06T18:47:07.507Z,78.97
2019-05-06T18:49:37.955Z,78.11
2019-05-06T18:52:08.295Z,79.15
2019-05-06T18:54:38.709Z,78.81
2019-05-06T18:57:10.292Z,78.44
2019-05-06T18:59:42.439Z,78.73
2019-05-06T19:02:13.145Z,79.17
2019-05-06T19:04:57.111Z,78.66
2019-05-06T19:07:27.512Z,78.38
2019-05-06T19:10:18.576Z,78.60
2019-05-06T19:12:49.284Z,78.43
2019-05-06T19:15:21.999Z,78.20
2019-05-06T19:17:55.124Z,78.19
2019-05-06T19:20:25.886Z,78.14
2019-05-06T19:22:56.349Z,78.26
2019-05-06T19:25:27.159Z,77.27
2019-05-06T19:27:57.477Z,78.04
2019-05-06T19:30:28.084Z,77.60
2019-05-06T19:32:58.579Z,77.07
2019-05-06T19:35:29.375Z,77.93
2019-05-06T19:37:59.625Z,77.45
2019-05-06T19:40:32.173Z,77.20
2019-05-06T19:43:02.958Z,76.72
2019-05-06T19:45:34.676Z,77.59
2019-05-06T19:48:05.384Z,78.24
2019-05-06T19:50:36.861Z,78.56
2019-05-06T19:53:07.623Z,78.70
2019-05-06T19:55:38.213Z,78.74
2019-05-06T19:58:08.520Z,78.92
2019-05-06T20:00:39.042Z,79.04
2019-05-06T20:03:09.685Z,78.56
2019-05-06T20:06:02.304Z,78.21
2019-05-06T20:08:43.096Z,77.85
2019-05-06T20:11:37.265Z,77.84
2019-05-06T20:14:07.805Z,76.88
2019-05-06T20:16:38.273Z,76.76
2019-05-06T20:19:08.824Z,76.02
2019-05-06T20:21:39.314Z,76.10
2019-05-06T20:24:12.830Z,76.92
2019-05-06T20:26:43.175Z,77.19
2019-05-06T20:29:13.855Z,76.61
2019-05-06T20:31:44.351Z,76.41
2019-05-06T20:34:14.626Z,75.73
2019-05-06T20:36:45.372Z,75.49
2019-05-06T20:39:15.901Z,75.35
2019-05-06T20:41:46.555Z,75.19
2019-05-06T20:44:17.230Z,75.00
2019-05-06T20:46:47.682Z,74.88
2019-05-06T20:49:18.517Z,75.32
2019-05-06T20:51:49.295Z,74.96
2019-05-06T20:54:19.780Z,75.65
2019-05-06T20:56:50.486Z,75.29
2019-05-06T20:59:22.763Z,74.31
2019-05-06T21:01:55.405Z,74.38
2019-05-06T21:04:26.184Z,74.65
2019-05-06T21:06:56.747Z,74.55
2019-05-06T21:09:27.269Z,74.63
2019-05-06T21:11:57.835Z,75.49
2019-05-06T21:14:28.340Z,74.46
2019-05-06T21:16:58.944Z,75.89
2019-05-06T21:19:29.530Z,75.23
2019-05-06T21:22:02.180Z,75.48
2019-05-06T21:24:35.734Z,75.12
2019-05-06T21:27:05.018Z,76.55
2019-05-06T21:29:35.783Z,75.43
2019-05-06T21:32:06.038Z,75.53
2019-05-06T21:34:36.519Z,75.97
2019-05-06T21:37:06.880Z,75.52
2019-05-06T21:39:37.427Z,75.51
2019-05-06T21:42:09.485Z,75.11
2019-05-06T21:44:39.916Z,75.06
2019-05-06T21:47:10.438Z,75.40
2019-05-06T21:49:42.159Z,75.80
2019-05-06T21:52:13.218Z,75.42
2019-05-06T21:54:43.641Z,75.68
2019-05-06T21:57:14.021Z,75.08
2019-05-06T21:59:44.389Z,75.09
2019-05-06T22:02:15.892Z,74.77
2019-05-06T22:04:46.344Z,74.52
2019-05-06T22:07:16.806Z,74.34
2019-05-06T22:09:47.387Z,74.46
2019-05-06T22:12:18.867Z,74.41
2019-05-06T22:14:49.608Z,74.62
2019-05-06T22:17:22.457Z,74.61
2019-05-06T22:19:52.486Z,74.70
2019-05-06T22:22:24.920Z,74.49
2019-05-06T22:24:57.909Z,73.27
2019-05-06T22:27:30.074Z,74.85
2019-05-06T22:30:03.065Z,74.48
2019-05-06T22:32:47.022Z,74.28
2019-05-06T22:35:18.291Z,73.97
2019-05-06T22:37:48.809Z,74.33
2019-05-06T22:40:19.444Z,73.70
2019-05-06T22:42:49.811Z,74.61
2019-05-06T22:45:22.096Z,73.39
2019-05-06T22:47:53.791Z,74.41
2019-05-06T22:50:24.111Z,73.75
2019-05-06T22:52:54.463Z,73.50
2019-05-06T22:55:25.280Z,75.04
2019-05-06T22:57:55.827Z,75.14
2019-05-06T23:00:26.968Z,76.21
2019-05-06T23:03:02.281Z,75.31
2019-05-06T23:05:34.038Z,75.91
2019-05-06T23:08:05.618Z,75.58
2019-05-06T23:10:36.000Z,75.48
2019-05-06T23:13:06.361Z,75.63
2019-05-06T23:15:36.991Z,75.79
2019-05-06T23:18:07.438Z,75.97
2019-05-06T23:20:38.016Z,76.49
2019-05-06T23:23:08.556Z,77.04
2019-05-06T23:25:38.884Z,75.33
2019-05-06T23:28:11.863Z,76.06
2019-05-06T23:30:42.878Z,77.11
2019-05-06T23:33:13.982Z,76.79
2019-05-06T23:35:44.614Z,76.35
2019-05-06T23:38:33.966Z,75.87
2019-05-06T23:41:22.210Z,75.64
2019-05-06T23:44:10.026Z,75.05
2019-05-06T23:46:57.979Z,75.22
2019-05-06T23:49:45.908Z,75.40
2019-05-06T23:52:33.845Z,74.88
2019-05-06T23:55:22.053Z,75.33
2019-05-06T23:57:52.585Z,75.38
